TAF Text Data
IDs:
Format:
Raw Decoded Include METAR

Data at: 1131 UTC 23 Jun 2021

KCON 231120Z 2312/2412 31006KT P6SM SKC
  FM231500 30010G17KT P6SM FEW250
  FM240000 00000KT P6SM SKC